sensor_id;sensor_type;location;lat;lon;timestamp;P1;durP1;ratioP1;P2;durP2;ratioP2
3781;SDS011;6881;49.962;7.718;2023-05-07T00:01:00;2.90;;;2.23;;
3781;SDS011;6881;49.962;7.718;2023-05-07T00:03:25;1.70;;;1.60;;
3781;SDS011;6881;49.962;7.718;2023-05-07T00:05:51;2.40;;;2.20;;
3781;SDS011;6881;49.962;7.718;2023-05-07T00:08:17;2.43;;;2.10;;
3781;SDS011;6881;49.962;7.718;2023-05-07T00:10:43;3.20;;;2.00;;
3781;SDS011;6881;49.962;7.718;2023-05-07T00:13:08;2.83;;;1.57;;
3781;SDS011;6881;49.962;7.718;2023-05-07T00:15:34;2.30;;;2.10;;
3781;SDS011;6881;49.962;7.718;2023-05-07T00:17:59;1.80;;;1.70;;
3781;SDS011;6881;49.962;7.718;2023-05-07T00:20:25;3.80;;;2.73;;
3781;SDS011;6881;49.962;7.718;2023-05-07T00:22:50;3.63;;;1.97;;
3781;SDS011;6881;49.962;7.718;2023-05-07T00:25:15;2.40;;;2.20;;
3781;SDS011;6881;49.962;7.718;2023-05-07T00:27:41;2.67;;;1.93;;
3781;SDS011;6881;49.962;7.718;2023-05-07T00:30:06;2.97;;;1.60;;
3781;SDS011;6881;49.962;7.718;2023-05-07T00:32:32;2.30;;;2.10;;
3781;SDS011;6881;49.962;7.718;2023-05-07T00:34:57;2.40;;;2.00;;
3781;SDS011;6881;49.962;7.718;2023-05-07T00:37:23;2.93;;;2.20;;
3781;SDS011;6881;49.962;7.718;2023-05-07T00:39:48;2.33;;;1.80;;
3781;SDS011;6881;49.962;7.718;2023-05-07T00:42:13;1.87;;;1.60;;
3781;SDS011;6881;49.962;7.718;2023-05-07T00:44:41;2.73;;;2.10;;
3781;SDS011;6881;49.962;7.718;2023-05-07T00:47:06;2.50;;;2.30;;
3781;SDS011;6881;49.962;7.718;2023-05-07T00:49:39;2.90;;;2.00;;
3781;SDS011;6881;49.962;7.718;2023-05-07T00:52:07;3.10;;;2.00;;
3781;SDS011;6881;49.962;7.718;2023-05-07T00:54:33;3.13;;;1.70;;
3781;SDS011;6881;49.962;7.718;2023-05-07T00:56:59;2.83;;;2.23;;
3781;SDS011;6881;49.962;7.718;2023-05-07T00:59:25;1.77;;;1.67;;
3781;SDS011;6881;49.962;7.718;2023-05-07T01:01:51;2.47;;;1.73;;
3781;SDS011;6881;49.962;7.718;2023-05-07T01:04:17;1.80;;;1.60;;
3781;SDS011;6881;49.962;7.718;2023-05-07T01:06:42;2.17;;;1.97;;
3781;SDS011;6881;49.962;7.718;2023-05-07T01:09:08;1.73;;;1.60;;
3781;SDS011;6881;49.962;7.718;2023-05-07T01:11:34;3.30;;;2.20;;
3781;SDS011;6881;49.962;7.718;2023-05-07T01:13:59;2.67;;;1.63;;
3781;SDS011;6881;49.962;7.718;2023-05-07T01:16:25;2.33;;;1.80;;
3781;SDS011;6881;49.962;7.718;2023-05-07T01:18:50;2.47;;;1.93;;
3781;SDS011;6881;49.962;7.718;2023-05-07T01:21:16;2.97;;;2.37;;
3781;SDS011;6881;49.962;7.718;2023-05-07T01:23:43;2.17;;;1.90;;
3781;SDS011;6881;49.962;7.718;2023-05-07T01:26:12;2.97;;;1.77;;
3781;SDS011;6881;49.962;7.718;2023-05-07T01:28:37;3.07;;;1.90;;
3781;SDS011;6881;49.962;7.718;2023-05-07T01:31:03;2.23;;;2.00;;
3781;SDS011;6881;49.962;7.718;2023-05-07T01:33:29;2.33;;;2.10;;
3781;SDS011;6881;49.962;7.718;2023-05-07T01:35:57;2.20;;;2.03;;
3781;SDS011;6881;49.962;7.718;2023-05-07T01:38:25;2.20;;;2.00;;
3781;SDS011;6881;49.962;7.718;2023-05-07T01:40:51;6.43;;;2.23;;
3781;SDS011;6881;49.962;7.718;2023-05-07T01:43:18;2.10;;;1.90;;
3781;SDS011;6881;49.962;7.718;2023-05-07T01:45:44;2.40;;;2.00;;
3781;SDS011;6881;49.962;7.718;2023-05-07T01:48:10;2.77;;;1.87;;
3781;SDS011;6881;49.962;7.718;2023-05-07T01:50:36;4.40;;;1.70;;
3781;SDS011;6881;49.962;7.718;2023-05-07T01:53:02;2.53;;;2.33;;
3781;SDS011;6881;49.962;7.718;2023-05-07T01:55:27;2.30;;;2.10;;
3781;SDS011;6881;49.962;7.718;2023-05-07T01:57:53;2.13;;;1.70;;
3781;SDS011;6881;49.962;7.718;2023-05-07T02:00:18;3.10;;;2.30;;
3781;SDS011;6881;49.962;7.718;2023-05-07T02:02:44;6.20;;;2.30;;
3781;SDS011;6881;49.962;7.718;2023-05-07T02:05:09;4.67;;;2.03;;
3781;SDS011;6881;49.962;7.718;2023-05-07T02:07:35;2.23;;;1.97;;
3781;SDS011;6881;49.962;7.718;2023-05-07T02:10:00;2.60;;;2.10;;
3781;SDS011;6881;49.962;7.718;2023-05-07T02:12:25;2.63;;;2.40;;
3781;SDS011;6881;49.962;7.718;2023-05-07T02:14:51;3.20;;;1.60;;
3781;SDS011;6881;49.962;7.718;2023-05-07T02:17:16;2.50;;;1.80;;
3781;SDS011;6881;49.962;7.718;2023-05-07T02:19:41;3.40;;;2.60;;
3781;SDS011;6881;49.962;7.718;2023-05-07T02:22:07;2.60;;;2.13;;
3781;SDS011;6881;49.962;7.718;2023-05-07T02:24:32;4.20;;;2.17;;
3781;SDS011;6881;49.962;7.718;2023-05-07T02:26:58;2.33;;;2.13;;
3781;SDS011;6881;49.962;7.718;2023-05-07T02:29:23;2.67;;;2.47;;
3781;SDS011;6881;49.962;7.718;2023-05-07T02:31:48;3.10;;;2.17;;
3781;SDS011;6881;49.962;7.718;2023-05-07T02:34:18;2.30;;;2.10;;
3781;SDS011;6881;49.962;7.718;2023-05-07T02:36:43;2.90;;;2.07;;
3781;SDS011;6881;49.962;7.718;2023-05-07T02:39:09;2.37;;;2.10;;
3781;SDS011;6881;49.962;7.718;2023-05-07T02:41:34;2.10;;;2.00;;
3781;SDS011;6881;49.962;7.718;2023-05-07T02:43:59;3.30;;;1.93;;
3781;SDS011;6881;49.962;7.718;2023-05-07T02:46:25;3.70;;;2.30;;
3781;SDS011;6881;49.962;7.718;2023-05-07T02:48:50;2.23;;;2.03;;
3781;SDS011;6881;49.962;7.718;2023-05-07T02:51:17;2.53;;;2.20;;
3781;SDS011;6881;49.962;7.718;2023-05-07T02:53:44;2.90;;;2.00;;
3781;SDS011;6881;49.962;7.718;2023-05-07T02:56:09;2.47;;;2.23;;
3781;SDS011;6881;49.962;7.718;2023-05-07T02:58:35;5.30;;;2.30;;
3781;SDS011;6881;49.962;7.718;2023-05-07T03:01:00;2.40;;;2.20;;
3781;SDS011;6881;49.962;7.718;2023-05-07T03:03:25;3.53;;;2.00;;
3781;SDS011;6881;49.962;7.718;2023-05-07T03:05:51;6.67;;;2.40;;
3781;SDS011;6881;49.962;7.718;2023-05-07T03:08:16;2.67;;;2.47;;
3781;SDS011;6881;49.962;7.718;2023-05-07T03:10:41;2.10;;;1.90;;
3781;SDS011;6881;49.962;7.718;2023-05-07T03:13:07;3.20;;;2.50;;
3781;SDS011;6881;49.962;7.718;2023-05-07T03:15:32;1.80;;;1.67;;
3781;SDS011;6881;49.962;7.718;2023-05-07T03:17:57;5.30;;;2.40;;
3781;SDS011;6881;49.962;7.718;2023-05-07T03:20:23;2.03;;;1.90;;
3781;SDS011;6881;49.962;7.718;2023-05-07T03:22:48;3.67;;;1.97;;
3781;SDS011;6881;49.962;7.718;2023-05-07T03:25:13;2.30;;;2.07;;
3781;SDS011;6881;49.962;7.718;2023-05-07T03:27:39;2.43;;;1.90;;
3781;SDS011;6881;49.962;7.718;2023-05-07T03:30:07;2.00;;;1.80;;
3781;SDS011;6881;49.962;7.718;2023-05-07T03:32:33;2.37;;;2.17;;
3781;SDS011;6881;49.962;7.718;2023-05-07T03:34:59;2.07;;;1.90;;
3781;SDS011;6881;49.962;7.718;2023-05-07T03:37:25;5.93;;;2.40;;
3781;SDS011;6881;49.962;7.718;2023-05-07T03:39:50;2.47;;;2.00;;
3781;SDS011;6881;49.962;7.718;2023-05-07T03:42:15;2.17;;;2.00;;
3781;SDS011;6881;49.962;7.718;2023-05-07T03:44:41;2.30;;;1.67;;
3781;SDS011;6881;49.962;7.718;2023-05-07T03:47:06;2.43;;;2.23;;
3781;SDS011;6881;49.962;7.718;2023-05-07T03:49:31;2.30;;;2.10;;
3781;SDS011;6881;49.962;7.718;2023-05-07T03:51:57;2.23;;;2.03;;
3781;SDS011;6881;49.962;7.718;2023-05-07T03:54:22;3.00;;;2.67;;
3781;SDS011;6881;49.962;7.718;2023-05-07T03:56:47;2.33;;;2.13;;
3781;SDS011;6881;49.962;7.718;2023-05-07T03:59:13;3.40;;;2.07;;
3781;SDS011;6881;49.962;7.718;2023-05-07T04:01:38;4.40;;;2.67;;
3781;SDS011;6881;49.962;7.718;2023-05-07T04:04:04;1.83;;;1.73;;
3781;SDS011;6881;49.962;7.718;2023-05-07T04:06:30;2.40;;;2.20;;
3781;SDS011;6881;49.962;7.718;2023-05-07T04:08:55;2.20;;;2.00;;
3781;SDS011;6881;49.962;7.718;2023-05-07T04:11:21;2.40;;;2.20;;
3781;SDS011;6881;49.962;7.718;2023-05-07T04:13:46;2.80;;;2.03;;
3781;SDS011;6881;49.962;7.718;2023-05-07T04:16:12;3.67;;;2.90;;
3781;SDS011;6881;49.962;7.718;2023-05-07T04:18:37;4.23;;;2.27;;
3781;SDS011;6881;49.962;7.718;2023-05-07T04:21:03;2.53;;;2.33;;
3781;SDS011;6881;49.962;7.718;2023-05-07T04:23:28;4.60;;;2.30;;
3781;SDS011;6881;49.962;7.718;2023-05-07T04:25:54;2.40;;;2.20;;
3781;SDS011;6881;49.962;7.718;2023-05-07T04:28:19;3.90;;;2.20;;
3781;SDS011;6881;49.962;7.718;2023-05-07T04:30:45;2.30;;;2.10;;
3781;SDS011;6881;49.962;7.718;2023-05-07T04:33:11;2.50;;;2.30;;
3781;SDS011;6881;49.962;7.718;2023-05-07T04:35:36;2.33;;;2.10;;
3781;SDS011;6881;49.962;7.718;2023-05-07T04:38:02;2.30;;;2.00;;
3781;SDS011;6881;49.962;7.718;2023-05-07T04:40:27;2.57;;;2.33;;
3781;SDS011;6881;49.962;7.718;2023-05-07T04:42:52;3.30;;;2.40;;
3781;SDS011;6881;49.962;7.718;2023-05-07T04:45:18;2.50;;;2.30;;
3781;SDS011;6881;49.962;7.718;2023-05-07T04:47:44;2.33;;;2.13;;
3781;SDS011;6881;49.962;7.718;2023-05-07T04:50:09;2.43;;;2.23;;
3781;SDS011;6881;49.962;7.718;2023-05-07T04:52:35;3.80;;;2.20;;
3781;SDS011;6881;49.962;7.718;2023-05-07T04:55:01;3.93;;;2.50;;
3781;SDS011;6881;49.962;7.718;2023-05-07T04:57:27;5.00;;;2.40;;
3781;SDS011;6881;49.962;7.718;2023-05-07T04:59:52;2.63;;;2.43;;
3781;SDS011;6881;49.962;7.718;2023-05-07T05:02:18;3.10;;;2.10;;
3781;SDS011;6881;49.962;7.718;2023-05-07T05:04:44;2.60;;;2.30;;
3781;SDS011;6881;49.962;7.718;2023-05-07T05:07:09;2.90;;;2.10;;
3781;SDS011;6881;49.962;7.718;2023-05-07T05:09:35;2.43;;;2.13;;
3781;SDS011;6881;49.962;7.718;2023-05-07T05:12:00;2.10;;;2.00;;
3781;SDS011;6881;49.962;7.718;2023-05-07T05:14:25;3.00;;;2.50;;
3781;SDS011;6881;49.962;7.718;2023-05-07T05:16:51;4.07;;;3.10;;
3781;SDS011;6881;49.962;7.718;2023-05-07T05:19:16;5.37;;;3.20;;
3781;SDS011;6881;49.962;7.718;2023-05-07T05:21:41;4.53;;;3.70;;
3781;SDS011;6881;49.962;7.718;2023-05-07T05:24:07;3.50;;;3.20;;
3781;SDS011;6881;49.962;7.718;2023-05-07T05:26:32;3.53;;;3.00;;
3781;SDS011;6881;49.962;7.718;2023-05-07T05:28:58;4.33;;;3.93;;
3781;SDS011;6881;49.962;7.718;2023-05-07T05:31:23;4.07;;;3.47;;
3781;SDS011;6881;49.962;7.718;2023-05-07T05:33:49;4.30;;;3.90;;
3781;SDS011;6881;49.962;7.718;2023-05-07T05:36:14;3.03;;;2.83;;
3781;SDS011;6881;49.962;7.718;2023-05-07T05:38:39;3.30;;;3.00;;
3781;SDS011;6881;49.962;7.718;2023-05-07T05:41:05;2.30;;;2.10;;
3781;SDS011;6881;49.962;7.718;2023-05-07T05:43:30;2.70;;;2.43;;
3781;SDS011;6881;49.962;7.718;2023-05-07T05:45:56;4.73;;;2.83;;
3781;SDS011;6881;49.962;7.718;2023-05-07T05:48:22;2.80;;;2.60;;
3781;SDS011;6881;49.962;7.718;2023-05-07T05:50:48;2.07;;;1.90;;
3781;SDS011;6881;49.962;7.718;2023-05-07T05:53:13;2.60;;;2.33;;
3781;SDS011;6881;49.962;7.718;2023-05-07T05:55:38;3.00;;;2.40;;
3781;SDS011;6881;49.962;7.718;2023-05-07T05:58:04;2.77;;;2.57;;
3781;SDS011;6881;49.962;7.718;2023-05-07T06:00:29;2.97;;;2.70;;
3781;SDS011;6881;49.962;7.718;2023-05-07T06:02:55;2.80;;;2.60;;
3781;SDS011;6881;49.962;7.718;2023-05-07T06:05:20;4.33;;;2.90;;
3781;SDS011;6881;49.962;7.718;2023-05-07T06:07:46;2.80;;;2.60;;
3781;SDS011;6881;49.962;7.718;2023-05-07T06:10:11;3.13;;;2.37;;
3781;SDS011;6881;49.962;7.718;2023-05-07T06:12:36;10.87;;;9.90;;
3781;SDS011;6881;49.962;7.718;2023-05-07T06:15:02;10.83;;;9.83;;
3781;SDS011;6881;49.962;7.718;2023-05-07T06:17:28;8.57;;;7.77;;
3781;SDS011;6881;49.962;7.718;2023-05-07T06:19:53;5.47;;;5.00;;
3781;SDS011;6881;49.962;7.718;2023-05-07T06:22:18;4.50;;;4.10;;
3781;SDS011;6881;49.962;7.718;2023-05-07T06:24:44;3.50;;;3.13;;
3781;SDS011;6881;49.962;7.718;2023-05-07T06:27:09;3.17;;;2.50;;
3781;SDS011;6881;49.962;7.718;2023-05-07T06:29:35;3.00;;;2.80;;
3781;SDS011;6881;49.962;7.718;2023-05-07T06:32:07;3.37;;;3.07;;
3781;SDS011;6881;49.962;7.718;2023-05-07T06:34:36;2.63;;;2.43;;
3781;SDS011;6881;49.962;7.718;2023-05-07T06:37:02;4.27;;;3.27;;
3781;SDS011;6881;49.962;7.718;2023-05-07T06:39:27;6.77;;;3.50;;
3781;SDS011;6881;49.962;7.718;2023-05-07T06:41:53;3.80;;;3.50;;
3781;SDS011;6881;49.962;7.718;2023-05-07T06:44:18;3.80;;;3.37;;
3781;SDS011;6881;49.962;7.718;2023-05-07T06:46:43;3.60;;;3.03;;
3781;SDS011;6881;49.962;7.718;2023-05-07T06:49:09;3.00;;;2.80;;
3781;SDS011;6881;49.962;7.718;2023-05-07T06:51:34;4.00;;;3.60;;
3781;SDS011;6881;49.962;7.718;2023-05-07T06:53:59;3.13;;;2.90;;
3781;SDS011;6881;49.962;7.718;2023-05-07T06:56:25;4.40;;;3.43;;
3781;SDS011;6881;49.962;7.718;2023-05-07T06:58:50;3.27;;;2.97;;
3781;SDS011;6881;49.962;7.718;2023-05-07T07:01:16;3.90;;;3.07;;
3781;SDS011;6881;49.962;7.718;2023-05-07T07:03:41;4.60;;;3.73;;
3781;SDS011;6881;49.962;7.718;2023-05-07T07:06:06;6.03;;;3.07;;
3781;SDS011;6881;49.962;7.718;2023-05-07T07:08:32;2.73;;;2.53;;
3781;SDS011;6881;49.962;7.718;2023-05-07T07:10:57;4.90;;;3.30;;
3781;SDS011;6881;49.962;7.718;2023-05-07T07:13:22;5.47;;;3.70;;
3781;SDS011;6881;49.962;7.718;2023-05-07T07:15:48;5.03;;;3.57;;
3781;SDS011;6881;49.962;7.718;2023-05-07T07:18:13;4.00;;;3.03;;
3781;SDS011;6881;49.962;7.718;2023-05-07T07:20:39;2.90;;;2.60;;
3781;SDS011;6881;49.962;7.718;2023-05-07T07:23:04;2.67;;;2.33;;
3781;SDS011;6881;49.962;7.718;2023-05-07T07:25:30;3.13;;;2.83;;
3781;SDS011;6881;49.962;7.718;2023-05-07T07:27:55;3.47;;;3.13;;
3781;SDS011;6881;49.962;7.718;2023-05-07T07:30:21;3.17;;;2.70;;
3781;SDS011;6881;49.962;7.718;2023-05-07T07:32:46;4.50;;;2.93;;
3781;SDS011;6881;49.962;7.718;2023-05-07T07:35:11;3.07;;;2.87;;
3781;SDS011;6881;49.962;7.718;2023-05-07T07:37:37;3.50;;;3.10;;
3781;SDS011;6881;49.962;7.718;2023-05-07T07:40:02;4.17;;;3.00;;
3781;SDS011;6881;49.962;7.718;2023-05-07T07:42:28;2.70;;;2.50;;
3781;SDS011;6881;49.962;7.718;2023-05-07T07:44:54;3.70;;;3.40;;
3781;SDS011;6881;49.962;7.718;2023-05-07T07:47:20;3.90;;;2.87;;
3781;SDS011;6881;49.962;7.718;2023-05-07T07:49:45;3.30;;;3.00;;
3781;SDS011;6881;49.962;7.718;2023-05-07T07:52:10;3.73;;;2.43;;
3781;SDS011;6881;49.962;7.718;2023-05-07T07:54:35;3.50;;;3.20;;
3781;SDS011;6881;49.962;7.718;2023-05-07T07:57:01;3.83;;;3.33;;
3781;SDS011;6881;49.962;7.718;2023-05-07T07:59:26;3.07;;;2.87;;
3781;SDS011;6881;49.962;7.718;2023-05-07T08:01:52;4.87;;;3.03;;
3781;SDS011;6881;49.962;7.718;2023-05-07T08:04:20;3.77;;;2.97;;
3781;SDS011;6881;49.962;7.718;2023-05-07T08:06:46;2.80;;;2.40;;
3781;SDS011;6881;49.962;7.718;2023-05-07T08:09:11;3.27;;;2.97;;
3781;SDS011;6881;49.962;7.718;2023-05-07T08:11:36;3.00;;;2.80;;
3781;SDS011;6881;49.962;7.718;2023-05-07T08:14:02;4.20;;;3.30;;
3781;SDS011;6881;49.962;7.718;2023-05-07T08:16:28;3.00;;;2.80;;
3781;SDS011;6881;49.962;7.718;2023-05-07T08:18:53;3.23;;;2.80;;
3781;SDS011;6881;49.962;7.718;2023-05-07T08:21:19;4.63;;;3.00;;
3781;SDS011;6881;49.962;7.718;2023-05-07T08:23:45;2.90;;;2.57;;
3781;SDS011;6881;49.962;7.718;2023-05-07T08:26:10;4.60;;;2.50;;
3781;SDS011;6881;49.962;7.718;2023-05-07T08:28:36;3.10;;;2.80;;
3781;SDS011;6881;49.962;7.718;2023-05-07T08:31:01;2.70;;;2.50;;
3781;SDS011;6881;49.962;7.718;2023-05-07T08:33:26;3.53;;;2.47;;
3781;SDS011;6881;49.962;7.718;2023-05-07T08:35:52;3.23;;;2.93;;
3781;SDS011;6881;49.962;7.718;2023-05-07T08:38:17;3.33;;;3.03;;
3781;SDS011;6881;49.962;7.718;2023-05-07T08:40:43;3.03;;;2.70;;
3781;SDS011;6881;49.962;7.718;2023-05-07T08:43:08;2.83;;;2.63;;
3781;SDS011;6881;49.962;7.718;2023-05-07T08:45:37;4.07;;;3.00;;
3781;SDS011;6881;49.962;7.718;2023-05-07T08:48:05;3.03;;;2.83;;
3781;SDS011;6881;49.962;7.718;2023-05-07T08:50:35;3.30;;;2.90;;
3781;SDS011;6881;49.962;7.718;2023-05-07T08:53:04;3.00;;;2.80;;
3781;SDS011;6881;49.962;7.718;2023-05-07T08:55:30;3.00;;;2.70;;
3781;SDS011;6881;49.962;7.718;2023-05-07T08:57:55;3.40;;;3.10;;
3781;SDS011;6881;49.962;7.718;2023-05-07T09:00:21;3.47;;;3.17;;
3781;SDS011;6881;49.962;7.718;2023-05-07T09:02:46;3.90;;;3.60;;
3781;SDS011;6881;49.962;7.718;2023-05-07T09:05:11;3.10;;;2.60;;
3781;SDS011;6881;49.962;7.718;2023-05-07T09:07:37;4.50;;;4.10;;
3781;SDS011;6881;49.962;7.718;2023-05-07T09:10:03;3.87;;;3.57;;
3781;SDS011;6881;49.962;7.718;2023-05-07T09:12:29;6.30;;;4.60;;
3781;SDS011;6881;49.962;7.718;2023-05-07T09:14:54;7.70;;;4.00;;
3781;SDS011;6881;49.962;7.718;2023-05-07T09:17:20;4.20;;;3.80;;
3781;SDS011;6881;49.962;7.718;2023-05-07T09:19:45;3.87;;;3.57;;
3781;SDS011;6881;49.962;7.718;2023-05-07T09:22:11;3.90;;;3.33;;
3781;SDS011;6881;49.962;7.718;2023-05-07T09:24:36;3.97;;;3.67;;
3781;SDS011;6881;49.962;7.718;2023-05-07T09:27:06;5.20;;;4.70;;
3781;SDS011;6881;49.962;7.718;2023-05-07T09:29:31;3.43;;;3.20;;
3781;SDS011;6881;49.962;7.718;2023-05-07T09:32:03;5.07;;;3.47;;
3781;SDS011;6881;49.962;7.718;2023-05-07T09:34:30;4.03;;;3.70;;
3781;SDS011;6881;49.962;7.718;2023-05-07T09:36:55;4.03;;;3.73;;
3781;SDS011;6881;49.962;7.718;2023-05-07T09:39:22;3.53;;;3.23;;
3781;SDS011;6881;49.962;7.718;2023-05-07T09:41:48;3.63;;;3.40;;
3781;SDS011;6881;49.962;7.718;2023-05-07T09:44:14;3.57;;;3.27;;
3781;SDS011;6881;49.962;7.718;2023-05-07T09:46:41;4.20;;;3.40;;
3781;SDS011;6881;49.962;7.718;2023-05-07T09:49:07;4.17;;;3.87;;
3781;SDS011;6881;49.962;7.718;2023-05-07T09:51:43;3.50;;;3.20;;
3781;SDS011;6881;49.962;7.718;2023-05-07T09:54:12;3.80;;;3.40;;
3781;SDS011;6881;49.962;7.718;2023-05-07T09:56:38;3.47;;;3.20;;
3781;SDS011;6881;49.962;7.718;2023-05-07T09:59:06;3.53;;;3.23;;
3781;SDS011;6881;49.962;7.718;2023-05-07T10:01:32;4.07;;;3.67;;
3781;SDS011;6881;49.962;7.718;2023-05-07T10:03:58;4.20;;;3.80;;
3781;SDS011;6881;49.962;7.718;2023-05-07T10:06:24;3.50;;;3.20;;
3781;SDS011;6881;49.962;7.718;2023-05-07T10:08:50;3.23;;;3.00;;
3781;SDS011;6881;49.962;7.718;2023-05-07T10:11:17;4.83;;;3.97;;
3781;SDS011;6881;49.962;7.718;2023-05-07T10:13:42;4.83;;;4.43;;
3781;SDS011;6881;49.962;7.718;2023-05-07T10:16:08;3.57;;;3.33;;
3781;SDS011;6881;49.962;7.718;2023-05-07T10:18:33;3.90;;;3.60;;
3781;SDS011;6881;49.962;7.718;2023-05-07T10:21:01;5.20;;;4.10;;
3781;SDS011;6881;49.962;7.718;2023-05-07T10:23:30;4.03;;;3.73;;
3781;SDS011;6881;49.962;7.718;2023-05-07T10:25:56;4.20;;;3.90;;
3781;SDS011;6881;49.962;7.718;2023-05-07T10:28:22;4.03;;;3.73;;
3781;SDS011;6881;49.962;7.718;2023-05-07T10:30:58;5.07;;;4.57;;
3781;SDS011;6881;49.962;7.718;2023-05-07T10:33:30;5.10;;;4.70;;
3781;SDS011;6881;49.962;7.718;2023-05-07T10:36:00;4.87;;;4.47;;
3781;SDS011;6881;49.962;7.718;2023-05-07T10:38:26;5.33;;;4.23;;
3781;SDS011;6881;49.962;7.718;2023-05-07T10:40:52;3.83;;;3.53;;
3781;SDS011;6881;49.962;7.718;2023-05-07T10:43:18;3.87;;;3.57;;
3781;SDS011;6881;49.962;7.718;2023-05-07T10:45:43;4.97;;;4.57;;
3781;SDS011;6881;49.962;7.718;2023-05-07T10:48:18;6.33;;;4.13;;
3781;SDS011;6881;49.962;7.718;2023-05-07T10:50:43;4.40;;;4.00;;
3781;SDS011;6881;49.962;7.718;2023-05-07T10:55:42;5.00;;;4.60;;
3781;SDS011;6881;49.962;7.718;2023-05-07T10:58:28;4.00;;;3.70;;
3781;SDS011;6881;49.962;7.718;2023-05-07T11:01:00;4.33;;;3.80;;
3781;SDS011;6881;49.962;7.718;2023-05-07T11:03:26;4.13;;;3.73;;
3781;SDS011;6881;49.962;7.718;2023-05-07T11:09:12;4.63;;;4.23;;
3781;SDS011;6881;49.962;7.718;2023-05-07T11:11:46;4.53;;;4.13;;
3781;SDS011;6881;49.962;7.718;2023-05-07T11:14:13;4.43;;;4.03;;
3781;SDS011;6881;49.962;7.718;2023-05-07T11:16:40;4.37;;;3.97;;
3781;SDS011;6881;49.962;7.718;2023-05-07T11:19:06;4.47;;;4.07;;
3781;SDS011;6881;49.962;7.718;2023-05-07T11:23:58;7.10;;;3.73;;
3781;SDS011;6881;49.962;7.718;2023-05-07T11:26:24;5.00;;;4.23;;
3781;SDS011;6881;49.962;7.718;2023-05-07T11:28:50;4.03;;;3.73;;
3781;SDS011;6881;49.962;7.718;2023-05-07T11:31:20;3.63;;;3.33;;
3781;SDS011;6881;49.962;7.718;2023-05-07T11:33:47;4.50;;;4.10;;
3781;SDS011;6881;49.962;7.718;2023-05-07T11:36:13;3.73;;;3.33;;
3781;SDS011;6881;49.962;7.718;2023-05-07T11:38:38;4.63;;;4.23;;
3781;SDS011;6881;49.962;7.718;2023-05-07T11:41:04;3.63;;;3.33;;
3781;SDS011;6881;49.962;7.718;2023-05-07T11:43:30;4.17;;;3.77;;
3781;SDS011;6881;49.962;7.718;2023-05-07T11:46:04;4.07;;;3.67;;
3781;SDS011;6881;49.962;7.718;2023-05-07T11:48:36;4.50;;;3.80;;
3781;SDS011;6881;49.962;7.718;2023-05-07T11:51:06;3.43;;;3.23;;
3781;SDS011;6881;49.962;7.718;2023-05-07T11:53:40;4.80;;;3.47;;
3781;SDS011;6881;49.962;7.718;2023-05-07T11:56:10;4.23;;;3.93;;
3781;SDS011;6881;49.962;7.718;2023-05-07T11:58:36;5.40;;;4.90;;
3781;SDS011;6881;49.962;7.718;2023-05-07T12:01:02;5.00;;;3.90;;
3781;SDS011;6881;49.962;7.718;2023-05-07T12:03:28;4.60;;;4.30;;
3781;SDS011;6881;49.962;7.718;2023-05-07T12:05:53;4.73;;;4.33;;
3781;SDS011;6881;49.962;7.718;2023-05-07T12:08:19;7.30;;;4.70;;
3781;SDS011;6881;49.962;7.718;2023-05-07T12:10:49;6.77;;;5.47;;
3781;SDS011;6881;49.962;7.718;2023-05-07T12:15:40;5.23;;;4.17;;
3781;SDS011;6881;49.962;7.718;2023-05-07T12:18:06;4.77;;;3.50;;
3781;SDS011;6881;49.962;7.718;2023-05-07T12:20:33;4.80;;;4.13;;
3781;SDS011;6881;49.962;7.718;2023-05-07T12:22:59;4.90;;;4.27;;
3781;SDS011;6881;49.962;7.718;2023-05-07T12:25:24;4.80;;;4.40;;
3781;SDS011;6881;49.962;7.718;2023-05-07T12:27:53;4.57;;;4.17;;
3781;SDS011;6881;49.962;7.718;2023-05-07T12:30:18;4.20;;;3.87;;
3781;SDS011;6881;49.962;7.718;2023-05-07T12:32:44;5.90;;;4.47;;
3781;SDS011;6881;49.962;7.718;2023-05-07T12:35:10;4.97;;;4.57;;
3781;SDS011;6881;49.962;7.718;2023-05-07T12:37:35;4.10;;;3.70;;
3781;SDS011;6881;49.962;7.718;2023-05-07T12:40:08;4.70;;;4.30;;
3781;SDS011;6881;49.962;7.718;2023-05-07T12:42:38;5.03;;;4.53;;
3781;SDS011;6881;49.962;7.718;2023-05-07T12:45:08;5.20;;;3.77;;
3781;SDS011;6881;49.962;7.718;2023-05-07T12:47:37;3.43;;;3.13;;
3781;SDS011;6881;49.962;7.718;2023-05-07T12:50:04;5.03;;;3.60;;
3781;SDS011;6881;49.962;7.718;2023-05-07T12:52:31;3.97;;;3.57;;
3781;SDS011;6881;49.962;7.718;2023-05-07T12:54:56;3.10;;;2.90;;
3781;SDS011;6881;49.962;7.718;2023-05-07T12:57:22;3.37;;;3.17;;
3781;SDS011;6881;49.962;7.718;2023-05-07T12:59:47;4.00;;;2.57;;
3781;SDS011;6881;49.962;7.718;2023-05-07T13:02:12;4.40;;;3.13;;
3781;SDS011;6881;49.962;7.718;2023-05-07T13:04:38;3.43;;;3.10;;
3781;SDS011;6881;49.962;7.718;2023-05-07T13:07:03;3.00;;;2.80;;
3781;SDS011;6881;49.962;7.718;2023-05-07T13:09:28;5.13;;;3.20;;
3781;SDS011;6881;49.962;7.718;2023-05-07T13:11:54;3.90;;;3.60;;
3781;SDS011;6881;49.962;7.718;2023-05-07T13:14:20;3.17;;;2.97;;
3781;SDS011;6881;49.962;7.718;2023-05-07T13:16:46;3.47;;;3.17;;
3781;SDS011;6881;49.962;7.718;2023-05-07T13:19:12;3.30;;;3.00;;
3781;SDS011;6881;49.962;7.718;2023-05-07T13:21:37;3.13;;;2.87;;
3781;SDS011;6881;49.962;7.718;2023-05-07T13:24:02;3.40;;;3.10;;
3781;SDS011;6881;49.962;7.718;2023-05-07T13:26:29;7.70;;;4.93;;
3781;SDS011;6881;49.962;7.718;2023-05-07T13:28:55;3.93;;;3.63;;
3781;SDS011;6881;49.962;7.718;2023-05-07T13:31:21;4.27;;;3.00;;
3781;SDS011;6881;49.962;7.718;2023-05-07T13:33:46;3.80;;;3.50;;
3781;SDS011;6881;49.962;7.718;2023-05-07T13:36:12;3.90;;;3.60;;
3781;SDS011;6881;49.962;7.718;2023-05-07T13:38:37;5.60;;;4.80;;
3781;SDS011;6881;49.962;7.718;2023-05-07T13:41:02;3.03;;;2.83;;
3781;SDS011;6881;49.962;7.718;2023-05-07T13:43:28;3.40;;;3.13;;
3781;SDS011;6881;49.962;7.718;2023-05-07T13:45:53;3.67;;;3.37;;
3781;SDS011;6881;49.962;7.718;2023-05-07T13:48:19;4.07;;;3.77;;
3781;SDS011;6881;49.962;7.718;2023-05-07T13:50:44;4.40;;;4.00;;
3781;SDS011;6881;49.962;7.718;2023-05-07T13:53:10;4.30;;;4.00;;
3781;SDS011;6881;49.962;7.718;2023-05-07T13:55:35;4.07;;;3.70;;
3781;SDS011;6881;49.962;7.718;2023-05-07T13:58:01;4.63;;;4.33;;
3781;SDS011;6881;49.962;7.718;2023-05-07T14:00:28;3.40;;;3.10;;
3781;SDS011;6881;49.962;7.718;2023-05-07T14:02:53;3.43;;;3.10;;
3781;SDS011;6881;49.962;7.718;2023-05-07T14:05:20;4.47;;;3.90;;
3781;SDS011;6881;49.962;7.718;2023-05-07T14:07:45;4.53;;;3.50;;
3781;SDS011;6881;49.962;7.718;2023-05-07T14:10:11;4.40;;;3.47;;
3781;SDS011;6881;49.962;7.718;2023-05-07T14:12:38;4.03;;;3.73;;
3781;SDS011;6881;49.962;7.718;2023-05-07T14:15:03;3.80;;;3.50;;
3781;SDS011;6881;49.962;7.718;2023-05-07T14:17:29;4.43;;;3.93;;
3781;SDS011;6881;49.962;7.718;2023-05-07T14:19:55;3.90;;;3.60;;
3781;SDS011;6881;49.962;7.718;2023-05-07T14:22:20;5.63;;;3.27;;
3781;SDS011;6881;49.962;7.718;2023-05-07T14:24:47;3.70;;;3.50;;
3781;SDS011;6881;49.962;7.718;2023-05-07T14:27:13;3.47;;;3.17;;
3781;SDS011;6881;49.962;7.718;2023-05-07T14:29:38;3.87;;;3.57;;
3781;SDS011;6881;49.962;7.718;2023-05-07T14:32:03;3.73;;;3.33;;
3781;SDS011;6881;49.962;7.718;2023-05-07T14:34:29;3.40;;;3.20;;
3781;SDS011;6881;49.962;7.718;2023-05-07T14:36:54;4.20;;;3.80;;
3781;SDS011;6881;49.962;7.718;2023-05-07T14:39:20;3.70;;;3.50;;
3781;SDS011;6881;49.962;7.718;2023-05-07T14:41:46;4.17;;;3.87;;
3781;SDS011;6881;49.962;7.718;2023-05-07T14:44:11;3.97;;;3.47;;
3781;SDS011;6881;49.962;7.718;2023-05-07T14:46:36;3.33;;;3.13;;
3781;SDS011;6881;49.962;7.718;2023-05-07T14:49:02;3.87;;;3.57;;
3781;SDS011;6881;49.962;7.718;2023-05-07T14:51:28;3.77;;;3.50;;
3781;SDS011;6881;49.962;7.718;2023-05-07T14:53:54;4.50;;;3.60;;
3781;SDS011;6881;49.962;7.718;2023-05-07T14:56:19;3.67;;;3.37;;
3781;SDS011;6881;49.962;7.718;2023-05-07T14:58:46;4.33;;;3.93;;
3781;SDS011;6881;49.962;7.718;2023-05-07T15:01:13;4.53;;;4.13;;
3781;SDS011;6881;49.962;7.718;2023-05-07T15:03:38;5.97;;;4.00;;
3781;SDS011;6881;49.962;7.718;2023-05-07T15:06:04;4.03;;;3.73;;
3781;SDS011;6881;49.962;7.718;2023-05-07T15:08:30;4.00;;;3.70;;
3781;SDS011;6881;49.962;7.718;2023-05-07T15:10:55;4.70;;;3.27;;
3781;SDS011;6881;49.962;7.718;2023-05-07T15:13:21;4.93;;;3.30;;
3781;SDS011;6881;49.962;7.718;2023-05-07T15:15:46;3.10;;;2.90;;
3781;SDS011;6881;49.962;7.718;2023-05-07T15:18:12;2.90;;;2.70;;